sensor_id;sensor_type;location;lat;lon;timestamp;pressure;altitude;pressure_sealevel;temperature;humidity
74678;BME280;63207;56.328;43.994;2022-11-20T00:01:24;101297.03;;;19.22;41.15
74678;BME280;63207;56.328;43.994;2022-11-20T00:03:51;101288.69;;;19.17;41.45
74678;BME280;63207;56.328;43.994;2022-11-20T00:06:36;101293.22;;;19.14;41.28
74678;BME280;63207;56.328;43.994;2022-11-20T00:09:02;101278.31;;;19.15;41.21
74678;BME280;63207;56.328;43.994;2022-11-20T00:11:30;101288.69;;;19.17;41.15
74678;BME280;63207;56.328;43.994;2022-11-20T00:13:59;101295.72;;;19.16;41.24
74678;BME280;63207;56.328;43.994;2022-11-20T00:16:26;101294.03;;;19.15;41.15
74678;BME280;63207;56.328;43.994;2022-11-20T00:18:53;101293.94;;;19.17;41.13
74678;BME280;63207;56.328;43.994;2022-11-20T00:21:27;101287.97;;;19.14;41.29
74678;BME280;63207;56.328;43.994;2022-11-20T00:23:55;101289.66;;;19.15;41.35
74678;BME280;63207;56.328;43.994;2022-11-20T00:26:22;101281.78;;;19.15;41.29
74678;BME280;63207;56.328;43.994;2022-11-20T00:28:54;101275.81;;;19.13;41.13
74678;BME280;63207;56.328;43.994;2022-11-20T00:31:20;101271.41;;;19.14;41.22
74678;BME280;63207;56.328;43.994;2022-11-20T00:33:48;101274.84;;;19.14;41.29
74678;BME280;63207;56.328;43.994;2022-11-20T00:36:19;101279.16;;;19.15;41.28
74678;BME280;63207;56.328;43.994;2022-11-20T00:38:45;101275.69;;;19.15;41.24
74678;BME280;63207;56.328;43.994;2022-11-20T00:41:14;101283.69;;;19.13;41.42
74678;BME280;63207;56.328;43.994;2022-11-20T00:43:41;101290.59;;;19.14;41.18
74678;BME280;63207;56.328;43.994;2022-11-20T00:46:16;101288.78;;;19.15;41.19
74678;BME280;63207;56.328;43.994;2022-11-20T00:48:43;101287.13;;;19.14;41.23
74678;BME280;63207;56.328;43.994;2022-11-20T00:51:28;101280.25;;;19.13;41.26
74678;BME280;63207;56.328;43.994;2022-11-20T00:53:57;101280.25;;;19.13;41.40
74678;BME280;63207;56.328;43.994;2022-11-20T00:56:25;101272.47;;;19.11;41.27
74678;BME280;63207;56.328;43.994;2022-11-20T00:59:09;101276.03;;;19.10;41.35
74678;BME280;63207;56.328;43.994;2022-11-20T01:01:37;101279.53;;;19.11;41.21
74678;BME280;63207;56.328;43.994;2022-11-20T01:04:03;101284.78;;;19.11;41.32
74678;BME280;63207;56.328;43.994;2022-11-20T01:06:31;101275.09;;;19.11;41.25
74678;BME280;63207;56.328;43.994;2022-11-20T01:08:59;101276.91;;;19.11;41.27
74678;BME280;63207;56.328;43.994;2022-11-20T01:11:28;101280.34;;;19.11;41.32
74678;BME280;63207;56.328;43.994;2022-11-20T01:13:55;101271.75;;;19.09;41.32
74678;BME280;63207;56.328;43.994;2022-11-20T01:18:51;101257.69;;;19.10;41.37
74678;BME280;63207;56.328;43.994;2022-11-20T01:21:21;101264.72;;;19.10;41.25
74678;BME280;63207;56.328;43.994;2022-11-20T01:23:49;101255.06;;;19.10;41.33
74678;BME280;63207;56.328;43.994;2022-11-20T01:26:21;101262.09;;;19.10;41.16
74678;BME280;63207;56.328;43.994;2022-11-20T01:28:47;101264.88;;;19.08;41.23
74678;BME280;63207;56.328;43.994;2022-11-20T01:31:31;101272.59;;;19.10;41.29
74678;BME280;63207;56.328;43.994;2022-11-20T01:33:59;101269.13;;;19.09;41.28
74678;BME280;63207;56.328;43.994;2022-11-20T01:36:44;101260.44;;;19.09;41.34
74678;BME280;63207;56.328;43.994;2022-11-20T01:39:16;101266.53;;;19.09;41.35
74678;BME280;63207;56.328;43.994;2022-11-20T01:41:43;101266.63;;;19.08;41.34
74678;BME280;63207;56.328;43.994;2022-11-20T01:45:00;101271.03;;;19.07;41.29
74678;BME280;63207;56.328;43.994;2022-11-20T01:47:46;101287.59;;;19.08;41.34
74678;BME280;63207;56.328;43.994;2022-11-20T01:50:18;101279.75;;;19.08;41.25
74678;BME280;63207;56.328;43.994;2022-11-20T01:52:52;101273.81;;;19.06;41.17
74678;BME280;63207;56.328;43.994;2022-11-20T01:55:25;101272.84;;;19.07;41.38
74678;BME280;63207;56.328;43.994;2022-11-20T01:57:52;101270.22;;;19.07;41.31
74678;BME280;63207;56.328;43.994;2022-11-20T02:00:19;101276.44;;;19.06;41.23
74678;BME280;63207;56.328;43.994;2022-11-20T02:02:50;101272.84;;;19.07;41.22
74678;BME280;63207;56.328;43.994;2022-11-20T02:05:45;101272.84;;;19.07;41.22
74678;BME280;63207;56.328;43.994;2022-11-20T02:08:13;101270.31;;;19.05;41.38
74678;BME280;63207;56.328;43.994;2022-11-20T02:10:39;101280.00;;;19.05;41.32
74678;BME280;63207;56.328;43.994;2022-11-20T02:13:05;101274.75;;;19.05;41.39
74678;BME280;63207;56.328;43.994;2022-11-20T02:15:49;101271.28;;;19.04;41.34
74678;BME280;63207;56.328;43.994;2022-11-20T02:18:18;101265.22;;;19.04;41.35
74678;BME280;63207;56.328;43.994;2022-11-20T02:20:46;101256.38;;;19.05;41.24
74678;BME280;63207;56.328;43.994;2022-11-20T02:23:32;101263.44;;;19.04;41.35
74678;BME280;63207;56.328;43.994;2022-11-20T02:26:04;101259.97;;;19.04;41.31
74678;BME280;63207;56.328;43.994;2022-11-20T02:28:32;101259.97;;;19.04;41.29
74678;BME280;63207;56.328;43.994;2022-11-20T02:30:58;101253.03;;;19.03;41.40
74678;BME280;63207;56.328;43.994;2022-11-20T02:33:24;101250.56;;;19.01;41.28
74678;BME280;63207;56.328;43.994;2022-11-20T02:35:50;101255.66;;;19.03;41.34
74678;BME280;63207;56.328;43.994;2022-11-20T02:38:16;101244.34;;;19.02;41.31
74678;BME280;63207;56.328;43.994;2022-11-20T02:40:42;101247.81;;;19.03;41.17
74678;BME280;63207;56.328;43.994;2022-11-20T02:43:08;101246.16;;;19.02;41.39
74678;BME280;63207;56.328;43.994;2022-11-20T02:45:35;101253.03;;;19.03;41.28
74678;BME280;63207;56.328;43.994;2022-11-20T02:48:00;101250.44;;;19.03;41.37
74678;BME280;63207;56.328;43.994;2022-11-20T02:50:45;101266.28;;;19.01;41.48
74678;BME280;63207;56.328;43.994;2022-11-20T02:53:11;101271.53;;;19.01;41.37
74678;BME280;63207;56.328;43.994;2022-11-20T02:55:37;101265.47;;;19.01;41.27
74678;BME280;63207;56.328;43.994;2022-11-20T02:58:03;101268.91;;;19.01;41.39
74678;BME280;63207;56.328;43.994;2022-11-20T03:00:28;101266.28;;;19.01;41.39
74678;BME280;63207;56.328;43.994;2022-11-20T03:02:54;101267.13;;;19.02;41.31
74678;BME280;63207;56.328;43.994;2022-11-20T03:05:20;101267.13;;;19.02;41.40
74678;BME280;63207;56.328;43.994;2022-11-20T03:07:46;101262.97;;;18.99;41.34
74678;BME280;63207;56.328;43.994;2022-11-20T03:10:12;101258.69;;;18.98;41.23
74678;BME280;63207;56.328;43.994;2022-11-20T03:12:38;101260.22;;;19.01;41.38
74678;BME280;63207;56.328;43.994;2022-11-20T03:15:04;101255.09;;;18.99;41.34
74678;BME280;63207;56.328;43.994;2022-11-20T03:17:30;101255.91;;;19.00;41.40
74678;BME280;63207;56.328;43.994;2022-11-20T03:19:56;101249.03;;;18.99;41.29
74678;BME280;63207;56.328;43.994;2022-11-20T03:22:22;101252.47;;;18.99;41.55
74678;BME280;63207;56.328;43.994;2022-11-20T03:24:47;101258.69;;;18.98;41.33
74678;BME280;63207;56.328;43.994;2022-11-20T03:27:13;101257.81;;;18.98;41.28
74678;BME280;63207;56.328;43.994;2022-11-20T03:29:39;101249.97;;;18.98;41.30
74678;BME280;63207;56.328;43.994;2022-11-20T03:32:05;101250.81;;;18.98;41.74
74678;BME280;63207;56.328;43.994;2022-11-20T03:34:31;101253.53;;;18.97;41.30
74678;BME280;63207;56.328;43.994;2022-11-20T03:36:57;101248.31;;;18.97;41.29
74678;BME280;63207;56.328;43.994;2022-11-20T03:39:23;101237.81;;;18.97;41.45
74678;BME280;63207;56.328;43.994;2022-11-20T03:41:49;101242.22;;;18.96;41.40
74678;BME280;63207;56.328;43.994;2022-11-20T03:44:14;101239.59;;;18.96;41.35
74678;BME280;63207;56.328;43.994;2022-11-20T03:46:40;101236.16;;;18.96;41.40
74678;BME280;63207;56.328;43.994;2022-11-20T03:49:25;101231.97;;;18.93;41.35
74678;BME280;63207;56.328;43.994;2022-11-20T03:51:50;101244.03;;;18.96;41.32
74678;BME280;63207;56.328;43.994;2022-11-20T03:54:16;101235.31;;;18.95;41.34
74678;BME280;63207;56.328;43.994;2022-11-20T03:56:42;101231.84;;;18.94;41.37
74678;BME280;63207;56.328;43.994;2022-11-20T03:59:10;101223.16;;;18.94;41.41
74678;BME280;63207;56.328;43.994;2022-11-20T04:01:36;101232.69;;;18.95;41.30
74678;BME280;63207;56.328;43.994;2022-11-20T04:04:03;101227.56;;;18.93;41.33
74678;BME280;63207;56.328;43.994;2022-11-20T04:06:33;101236.28;;;18.94;41.44
74678;BME280;63207;56.328;43.994;2022-11-20T04:08:59;101237.19;;;18.93;41.21
74678;BME280;63207;56.328;43.994;2022-11-20T04:11:44;101245.06;;;18.93;41.47
74678;BME280;63207;56.328;43.994;2022-11-20T04:14:14;101249.47;;;18.92;41.35
74678;BME280;63207;56.328;43.994;2022-11-20T04:16:41;101257.34;;;18.92;41.33
74678;BME280;63207;56.328;43.994;2022-11-20T04:19:12;101262.59;;;18.92;41.29
74678;BME280;63207;56.328;43.994;2022-11-20T04:21:38;101253.06;;;18.91;41.39
74678;BME280;63207;56.328;43.994;2022-11-20T04:24:04;101254.88;;;18.91;41.45
74678;BME280;63207;56.328;43.994;2022-11-20T04:26:31;101255.69;;;18.91;41.37
74678;BME280;63207;56.328;43.994;2022-11-20T04:28:57;101258.31;;;18.91;41.43
74678;BME280;63207;56.328;43.994;2022-11-20T04:31:26;101247.94;;;18.90;41.48
74678;BME280;63207;56.328;43.994;2022-11-20T04:33:53;101249.63;;;18.91;41.47
74678;BME280;63207;56.328;43.994;2022-11-20T04:36:25;101243.53;;;18.90;41.38
74678;BME280;63207;56.328;43.994;2022-11-20T04:38:55;101247.00;;;18.91;41.54
74678;BME280;63207;56.328;43.994;2022-11-20T04:41:24;101240.78;;;18.92;41.34
74678;BME280;63207;56.328;43.994;2022-11-20T04:43:52;101233.19;;;18.89;41.49
74678;BME280;63207;56.328;43.994;2022-11-20T04:46:19;101241.88;;;18.89;41.39
74678;BME280;63207;56.328;43.994;2022-11-20T04:48:46;101240.06;;;18.90;41.41
74678;BME280;63207;56.328;43.994;2022-11-20T04:51:31;101231.50;;;18.88;41.40
74678;BME280;63207;56.328;43.994;2022-11-20T04:53:57;101247.94;;;18.90;41.32
74678;BME280;63207;56.328;43.994;2022-11-20T04:56:23;101243.66;;;18.89;41.45
74678;BME280;63207;56.328;43.994;2022-11-20T04:58:49;101241.88;;;18.89;41.58
74678;BME280;63207;56.328;43.994;2022-11-20T05:01:20;101238.41;;;18.89;41.45
74678;BME280;63207;56.328;43.994;2022-11-20T05:03:47;101238.41;;;18.89;41.39
74678;BME280;63207;56.328;43.994;2022-11-20T05:06:18;101235.06;;;18.87;41.43
74678;BME280;63207;56.328;43.994;2022-11-20T05:08:44;101239.50;;;18.86;41.51
74678;BME280;63207;56.328;43.994;2022-11-20T05:11:16;101237.59;;;18.88;41.50
74678;BME280;63207;56.328;43.994;2022-11-20T05:13:43;101241.97;;;18.88;41.42
74678;BME280;63207;56.328;43.994;2022-11-20T05:16:11;101236.03;;;18.86;41.43
74678;BME280;63207;56.328;43.994;2022-11-20T05:18:38;101236.88;;;18.86;41.38
74678;BME280;63207;56.328;43.994;2022-11-20T05:21:04;101237.69;;;18.87;41.37
74678;BME280;63207;56.328;43.994;2022-11-20T05:23:32;101233.41;;;18.86;41.43
74678;BME280;63207;56.328;43.994;2022-11-20T05:25:58;101247.34;;;18.86;41.44
74678;BME280;63207;56.328;43.994;2022-11-20T05:28:25;101229.94;;;18.85;41.51
74678;BME280;63207;56.328;43.994;2022-11-20T05:30:52;101236.97;;;18.85;41.42
74678;BME280;63207;56.328;43.994;2022-11-20T05:33:36;101238.78;;;18.84;41.43
74678;BME280;63207;56.328;43.994;2022-11-20T05:36:03;101235.19;;;18.85;41.42
74678;BME280;63207;56.328;43.994;2022-11-20T05:38:29;101229.94;;;18.85;41.44
74678;BME280;63207;56.328;43.994;2022-11-20T05:41:03;101234.34;;;18.85;41.37
74678;BME280;63207;56.328;43.994;2022-11-20T05:43:32;101224.69;;;18.85;41.40
74678;BME280;63207;56.328;43.994;2022-11-20T05:45:58;101235.19;;;18.85;41.35
74678;BME280;63207;56.328;43.994;2022-11-20T05:48:24;101233.53;;;18.84;41.31
74678;BME280;63207;56.328;43.994;2022-11-20T05:50:50;101233.53;;;18.84;41.38
74678;BME280;63207;56.328;43.994;2022-11-20T05:53:16;101226.63;;;18.83;41.39
74678;BME280;63207;56.328;43.994;2022-11-20T05:55:42;101232.56;;;18.85;41.54
74678;BME280;63207;56.328;43.994;2022-11-20T05:58:08;101231.88;;;18.83;41.33
74678;BME280;63207;56.328;43.994;2022-11-20T06:00:33;101237.13;;;18.83;41.36
74678;BME280;63207;56.328;43.994;2022-11-20T06:02:59;101244.03;;;18.84;41.34
74678;BME280;63207;56.328;43.994;2022-11-20T06:05:25;101236.16;;;18.84;41.18
74678;BME280;63207;56.328;43.994;2022-11-20T06:07:51;101235.44;;;18.82;41.46
74678;BME280;63207;56.328;43.994;2022-11-20T06:10:17;101233.63;;;18.83;41.36
74678;BME280;63207;56.328;43.994;2022-11-20T06:12:43;101235.44;;;18.82;41.34
74678;BME280;63207;56.328;43.994;2022-11-20T06:15:09;101236.25;;;18.83;41.39
74678;BME280;63207;56.328;43.994;2022-11-20T06:17:34;101229.38;;;18.82;41.32
74678;BME280;63207;56.328;43.994;2022-11-20T06:20:01;101232.81;;;18.82;41.40
74678;BME280;63207;56.328;43.994;2022-11-20T06:22:26;101235.44;;;18.82;41.51
74678;BME280;63207;56.328;43.994;2022-11-20T06:24:52;101228.53;;;18.81;41.47
74678;BME280;63207;56.328;43.994;2022-11-20T06:27:18;101232.94;;;18.81;41.43
74678;BME280;63207;56.328;43.994;2022-11-20T06:29:44;101227.72;;;18.81;41.54
74678;BME280;63207;56.328;43.994;2022-11-20T06:32:10;101227.72;;;18.81;41.26
74678;BME280;63207;56.328;43.994;2022-11-20T06:34:36;101231.16;;;18.81;41.35
74678;BME280;63207;56.328;43.994;2022-11-20T06:37:01;101236.41;;;18.81;41.33
74678;BME280;63207;56.328;43.994;2022-11-20T06:39:27;101231.16;;;18.81;41.47
74678;BME280;63207;56.328;43.994;2022-11-20T06:41:53;101232.94;;;18.81;41.41
74678;BME280;63207;56.328;43.994;2022-11-20T06:44:19;101233.78;;;18.81;41.37
74678;BME280;63207;56.328;43.994;2022-11-20T06:46:45;101238.19;;;18.81;41.42
74678;BME280;63207;56.328;43.994;2022-11-20T06:49:10;101234.72;;;18.80;41.44
74678;BME280;63207;56.328;43.994;2022-11-20T06:51:55;101236.50;;;18.80;41.45
74678;BME280;63207;56.328;43.994;2022-11-20T06:54:21;101236.50;;;18.80;41.36
74678;BME280;63207;56.328;43.994;2022-11-20T06:56:47;101227.09;;;18.77;41.46
74678;BME280;63207;56.328;43.994;2022-11-20T06:59:13;101229.63;;;18.79;41.29
74678;BME280;63207;56.328;43.994;2022-11-20T07:01:39;101239.97;;;18.80;41.29
74678;BME280;63207;56.328;43.994;2022-11-20T07:04:06;101238.31;;;18.79;41.40
74678;BME280;63207;56.328;43.994;2022-11-20T07:06:31;101247.81;;;18.80;41.37
74678;BME280;63207;56.328;43.994;2022-11-20T07:08:57;101244.50;;;18.78;41.39
74678;BME280;63207;56.328;43.994;2022-11-20T07:11:23;101239.97;;;18.80;41.41
74678;BME280;63207;56.328;43.994;2022-11-20T07:13:49;101234.72;;;18.80;41.27
74678;BME280;63207;56.328;43.994;2022-11-20T07:16:15;101239.97;;;18.80;41.37
74678;BME280;63207;56.328;43.994;2022-11-20T07:18:41;101240.09;;;18.79;41.42
74678;BME280;63207;56.328;43.994;2022-11-20T07:21:09;101234.84;;;18.79;41.26
74678;BME280;63207;56.328;43.994;2022-11-20T07:23:36;101234.03;;;18.78;41.31
74678;BME280;63207;56.328;43.994;2022-11-20T07:26:06;101235.69;;;18.79;41.31
74678;BME280;63207;56.328;43.994;2022-11-20T07:28:33;101239.13;;;18.80;41.33
74678;BME280;63207;56.328;43.994;2022-11-20T07:30:59;101239.13;;;18.80;41.28
74678;BME280;63207;56.328;43.994;2022-11-20T07:33:25;101248.78;;;18.79;41.29
74678;BME280;63207;56.328;43.994;2022-11-20T07:35:51;101253.19;;;18.79;41.35
74678;BME280;63207;56.328;43.994;2022-11-20T07:38:16;101264.50;;;18.79;41.45
74678;BME280;63207;56.328;43.994;2022-11-20T07:40:42;101263.78;;;18.77;41.37
74678;BME280;63207;56.328;43.994;2022-11-20T07:43:08;101272.38;;;18.79;41.34
74678;BME280;63207;56.328;43.994;2022-11-20T07:45:55;101272.47;;;18.78;41.30
74678;BME280;63207;56.328;43.994;2022-11-20T07:48:22;101284.66;;;18.79;41.24
74678;BME280;63207;56.328;43.994;2022-11-20T07:50:48;101275.97;;;18.78;41.34
74678;BME280;63207;56.328;43.994;2022-11-20T07:53:13;101278.59;;;18.78;41.29
74678;BME280;63207;56.328;43.994;2022-11-20T07:55:39;101285.47;;;18.79;41.30
74678;BME280;63207;56.328;43.994;2022-11-20T07:58:05;101289.06;;;18.78;41.49
74678;BME280;63207;56.328;43.994;2022-11-20T08:00:31;101283.81;;;18.78;41.30
74678;BME280;63207;56.328;43.994;2022-11-20T08:02:57;101287.28;;;18.79;41.42
74678;BME280;63207;56.328;43.994;2022-11-20T08:05:23;101291.69;;;18.78;41.45
74678;BME280;63207;56.328;43.994;2022-11-20T08:07:49;101286.44;;;18.78;41.27
74678;BME280;63207;56.328;43.994;2022-11-20T08:10:16;101288.09;;;18.79;41.27
74678;BME280;63207;56.328;43.994;2022-11-20T08:12:49;101287.28;;;18.79;41.31
74678;BME280;63207;56.328;43.994;2022-11-20T08:15:35;101284.75;;;18.77;41.33
74678;BME280;63207;56.328;43.994;2022-11-20T08:18:03;101293.44;;;18.78;41.34
74678;BME280;63207;56.328;43.994;2022-11-20T08:20:29;101305.63;;;18.79;41.19
74678;BME280;63207;56.328;43.994;2022-11-20T08:23:00;101298.84;;;18.76;41.39
74678;BME280;63207;56.328;43.994;2022-11-20T08:25:27;101295.25;;;18.77;41.49
74678;BME280;63207;56.328;43.994;2022-11-20T08:27:53;101291.78;;;18.77;41.34
74678;BME280;63207;56.328;43.994;2022-11-20T08:30:19;101291.78;;;18.77;41.45
74678;BME280;63207;56.328;43.994;2022-11-20T08:32:44;101293.59;;;18.76;41.32
74678;BME280;63207;56.328;43.994;2022-11-20T08:35:10;101301.44;;;18.76;41.48
74678;BME280;63207;56.328;43.994;2022-11-20T08:37:36;101317.03;;;18.78;41.26
74678;BME280;63207;56.328;43.994;2022-11-20T08:40:10;101314.56;;;18.76;41.45
74678;BME280;63207;56.328;43.994;2022-11-20T08:42:46;101314.56;;;18.76;41.31
74678;BME280;63207;56.328;43.994;2022-11-20T08:45:11;101323.31;;;18.75;41.49
74678;BME280;63207;56.328;43.994;2022-11-20T08:47:37;101328.56;;;18.75;41.29
74678;BME280;63207;56.328;43.994;2022-11-20T08:50:03;101325.03;;;18.76;41.31
74678;BME280;63207;56.328;43.994;2022-11-20T08:52:29;101320.69;;;18.75;41.46
74678;BME280;63207;56.328;43.994;2022-11-20T08:54:55;101322.41;;;18.76;41.47
74678;BME280;63207;56.328;43.994;2022-11-20T08:57:21;101319.78;;;18.76;41.31
74678;BME280;63207;56.328;43.994;2022-11-20T08:59:46;101326.69;;;18.77;41.35
74678;BME280;63207;56.328;43.994;2022-11-20T09:02:12;101308.34;;;18.77;41.32
74678;BME280;63207;56.328;43.994;2022-11-20T09:04:38;101307.59;;;18.75;41.28
74678;BME280;63207;56.328;43.994;2022-11-20T09:07:04;101301.44;;;18.76;41.34
74678;BME280;63207;56.328;43.994;2022-11-20T09:09:30;101313.59;;;18.77;41.32
74678;BME280;63207;56.328;43.994;2022-11-20T09:11:56;101297.97;;;18.76;41.21
74678;BME280;63207;56.328;43.994;2022-11-20T09:14:22;101297.88;;;18.77;41.36
74678;BME280;63207;56.328;43.994;2022-11-20T09:16:50;101303.09;;;18.77;41.38
74678;BME280;63207;56.328;43.994;2022-11-20T09:19:16;101303.09;;;18.77;41.35
74678;BME280;63207;56.328;43.994;2022-11-20T09:21:41;101312.75;;;18.77;41.32
74678;BME280;63207;56.328;43.994;2022-11-20T09:24:07;101318.84;;;18.77;41.17
74678;BME280;63207;56.328;43.994;2022-11-20T09:26:52;101309.31;;;18.76;41.26
74678;BME280;63207;56.328;43.994;2022-11-20T09:29:17;101303.09;;;18.77;41.35
74678;BME280;63207;56.328;43.994;2022-11-20T09:31:43;101310.16;;;18.77;41.20
74678;BME280;63207;56.328;43.994;2022-11-20T09:34:09;101313.59;;;18.77;41.14
74678;BME280;63207;56.328;43.994;2022-11-20T09:36:35;101305.72;;;18.77;41.19
74678;BME280;63207;56.328;43.994;2022-11-20T09:39:01;101310.16;;;18.77;41.20
74678;BME280;63207;56.328;43.994;2022-11-20T09:41:31;101311.81;;;18.78;41.19
74678;BME280;63207;56.328;43.994;2022-11-20T09:44:35;101300.50;;;18.77;41.31
74678;BME280;63207;56.328;43.994;2022-11-20T09:55:31;101282.25;;;18.76;41.18
74678;BME280;63207;56.328;43.994;2022-11-20T09:57:58;101290.97;;;18.76;41.30
74678;BME280;63207;56.328;43.994;2022-11-20T10:00:26;101288.34;;;18.76;41.24
74678;BME280;63207;56.328;43.994;2022-11-20T10:03:00;101295.25;;;18.77;41.31
74678;BME280;63207;56.328;43.994;2022-11-20T10:05:37;101291.78;;;18.77;41.18
74678;BME280;63207;56.328;43.994;2022-11-20T10:22:19;101288.34;;;18.76;41.30
74678;BME280;63207;56.328;43.994;2022-11-20T10:25:13;101286.63;;;18.75;41.25
74678;BME280;63207;56.328;43.994;2022-11-20T10:27:52;101298.84;;;18.76;41.24
74678;BME280;63207;56.328;43.994;2022-11-20T10:30:21;101300.59;;;18.76;41.24
74678;BME280;63207;56.328;43.994;2022-11-20T10:32:54;101294.50;;;18.75;41.11
74678;BME280;63207;56.328;43.994;2022-11-20T10:35:35;101292.72;;;18.76;41.07
74678;BME280;63207;56.328;43.994;2022-11-20T10:38:08;101298.84;;;18.76;41.28
74678;BME280;63207;56.328;43.994;2022-11-20T10:40:38;101300.59;;;18.76;41.24
74678;BME280;63207;56.328;43.994;2022-11-20T10:43:19;101311.94;;;18.76;41.18
74678;BME280;63207;56.328;43.994;2022-11-20T10:48:24;101301.44;;;18.76;41.11
74678;BME280;63207;56.328;43.994;2022-11-20T10:50:56;101288.34;;;18.76;41.28
74678;BME280;63207;56.328;43.994;2022-11-20T10:53:31;101289.19;;;18.77;41.21
74678;BME280;63207;56.328;43.994;2022-11-20T10:56:40;101291.88;;;18.75;41.28
74678;BME280;63207;56.328;43.994;2022-11-20T11:02:24;101294.50;;;18.75;41.06
74678;BME280;63207;56.328;43.994;2022-11-20T11:04:57;101296.22;;;18.76;41.26
74678;BME280;63207;56.328;43.994;2022-11-20T11:07:44;101310.16;;;18.77;41.24
74678;BME280;63207;56.328;43.994;2022-11-20T11:10:16;101297.13;;;18.75;41.32
74678;BME280;63207;56.328;43.994;2022-11-20T11:12:45;101294.50;;;18.75;41.30
74678;BME280;63207;56.328;43.994;2022-11-20T11:17:55;101297.97;;;18.76;41.15
74678;BME280;63207;56.328;43.994;2022-11-20T11:20:25;101288.41;;;18.75;41.30
74678;BME280;63207;56.328;43.994;2022-11-20T11:22:56;101288.41;;;18.75;41.11
74678;BME280;63207;56.328;43.994;2022-11-20T11:25:34;101283.09;;;18.76;41.10
74678;BME280;63207;56.328;43.994;2022-11-20T11:28:03;101272.69;;;18.75;41.21
74678;BME280;63207;56.328;43.994;2022-11-20T11:30:41;101270.91;;;18.75;41.25
74678;BME280;63207;56.328;43.994;2022-11-20T11:33:28;101287.50;;;18.76;41.20
74678;BME280;63207;56.328;43.994;2022-11-20T11:35:59;101273.66;;;18.73;41.30
74678;BME280;63207;56.328;43.994;2022-11-20T11:38:30;101266.53;;;18.76;41.11
74678;BME280;63207;56.328;43.994;2022-11-20T11:40:57;101278.75;;;18.75;41.08
74678;BME280;63207;56.328;43.994;2022-11-20T11:43:29;101287.50;;;18.76;41.18
74678;BME280;63207;56.328;43.994;2022-11-20T11:54:38;101300.59;;;18.76;41.17
74678;BME280;63207;56.328;43.994;2022-11-20T11:57:39;101306.78;;;18.75;41.22
74678;BME280;63207;56.328;43.994;2022-11-20T12:00:21;101305.94;;;18.74;41.05
74678;BME280;63207;56.328;43.994;2022-11-20T12:03:43;101312.13;;;18.73;41.13
74678;BME280;63207;56.328;43.994;2022-11-20T12:06:13;101312.84;;;18.75;41.19
74678;BME280;63207;56.328;43.994;2022-11-20T12:08:57;101311.19;;;18.74;41.04
74678;BME280;63207;56.328;43.994;2022-11-20T12:11:43;101313.81;;;18.74;41.06
74678;BME280;63207;56.328;43.994;2022-11-20T12:14:14;101319.03;;;18.74;41.19
74678;BME280;63207;56.328;43.994;2022-11-20T12:16:45;101327.72;;;18.75;41.20
74678;BME280;63207;56.328;43.994;2022-11-20T12:19:13;101333.81;;;18.75;41.20
74678;BME280;63207;56.328;43.994;2022-11-20T12:24:42;101328.56;;;18.75;41.17
74678;BME280;63207;56.328;43.994;2022-11-20T12:27:44;101328.56;;;18.75;41.27
74678;BME280;63207;56.328;43.994;2022-11-20T12:30:09;101335.53;;;18.76;41.26
74678;BME280;63207;56.328;43.994;2022-11-20T12:52:53;101341.81;;;18.73;41.11
74678;BME280;63207;56.328;43.994;2022-11-20T12:55:36;101332.16;;;18.74;41.03
74678;BME280;63207;56.328;43.994;2022-11-20T12:58:18;101342.63;;;18.74;41.21
74678;BME280;63207;56.328;43.994;2022-11-20T13:04:00;101352.28;;;18.73;41.14
74678;BME280;63207;56.328;43.994;2022-11-20T13:06:33;101359.19;;;18.75;41.31
74678;BME280;63207;56.328;43.994;2022-11-20T13:08:59;101356.66;;;18.73;41.19
74678;BME280;63207;56.328;43.994;2022-11-20T13:11:43;101352.28;;;18.73;41.21
74678;BME280;63207;56.328;43.994;2022-11-20T13:17:14;101361.91;;;18.73;41.16
74678;BME280;63207;56.328;43.994;2022-11-20T13:19:52;101361.22;;;18.71;41.16
74678;BME280;63207;56.328;43.994;2022-11-20T13:22:48;101356.66;;;18.73;41.10
74678;BME280;63207;56.328;43.994;2022-11-20T13:28:00;101355.00;;;18.72;41.31
74678;BME280;63207;56.328;43.994;2022-11-20T13:30:28;101356.66;;;18.73;41.20
74678;BME280;63207;56.328;43.994;2022-11-20T13:36:00;101363.84;;;18.71;41.08
74678;BME280;63207;56.328;43.994;2022-11-20T13:38:28;101362.88;;;18.72;41.15
74678;BME280;63207;56.328;43.994;2022-11-20T13:41:00;101360.16;;;18.73;41.25
74678;BME280;63207;56.328;43.994;2022-11-20T13:43:47;101354.03;;;18.73;41.23
74678;BME280;63207;56.328;43.994;2022-11-20T13:46:13;101374.09;;;18.74;41.14
74678;BME280;63207;56.328;43.994;2022-11-20T13:48:43;101371.47;;;18.74;41.07
74678;BME280;63207;56.328;43.994;2022-11-20T13:59:46;101398.50;;;18.75;41.24
74678;BME280;63207;56.328;43.994;2022-11-20T14:02:17;101391.47;;;18.75;41.17
74678;BME280;63207;56.328;43.994;2022-11-20T14:04:49;101381.94;;;18.74;41.10
74678;BME280;63207;56.328;43.994;2022-11-20T14:07:18;101378.50;;;18.73;41.04
74678;BME280;63207;56.328;43.994;2022-11-20T14:09:56;101376.69;;;18.74;41.05
74678;BME280;63207;56.328;43.994;2022-11-20T14:12:28;101369.66;;;18.75;41.19
74678;BME280;63207;56.328;43.994;2022-11-20T14:14:54;101363.59;;;18.74;41.07
74678;BME280;63207;56.328;43.994;2022-11-20T14:17:29;101369.78;;;18.73;41.15
74678;BME280;63207;56.328;43.994;2022-11-20T14:19:59;101357.53;;;18.73;41.26
74678;BME280;63207;56.328;43.994;2022-11-20T14:22:27;101361.91;;;18.73;41.05